Portada
METAR-TAF:

METAR-TAF

Aeroports :

Saint-Étienne, França

latitud: 45-32N, longitud: 004-18E, altitud: 404 m

Observació

L'informe es va fer fa 16 minuts, a les 04:00 UTC
Vent calma
Temperatura 13°C
Humitat 94%
Pressió 1019 hPa
Visibilitat 10 km o més
sense núvols per sota de 1500 mi sense presència de cumulonimbus.

METAR: LFMH 170400Z AUTO 00000KT CAVOK 13/12 Q1019 NOSIG

Hora: 06:16 (04:16 UTC)

Pronòstic

L'informe es va fer fa 2 hores i 16 minuts, a les 02:00 UTC
Pronòstic vàlid del 17 a les 03 UTC al 18 a les 03 UTC
Vent 3 kt amb direcció variable
Visibilitat 10 km o més
sense núvols per sota de 1500 mi sense presència de cumulonimbus.

TAF: LFMH 170200Z 1703/1803 VRB03KT CAVOK

Observacions i pronòstics meteorològics de més de 4000 aeroports (METAR i TAF).

Les estacions disponibles són els punts grocs i vermells al mapa.

Posi el ratolí al punt desitjat per veure el nom de l'estació.

Feu clic per veure les observacions i els pronòstics meteorològics.

Per canviar el mapa: feu clic els botons verds amb una creu de color negre per apropar; al botó verd amb un guió per allunyar la imatge; o en les fletxes verdes per a mapes adjacents.


METAR-TAF: